Time;durP1;ratioP1;P1;durP2;ratioP2;P2;SDS_P1;SDS_P2;PMS_P1;PMS_P2;Temp;Humidity;BMP_temperature;BMP_pressure;BME280_temperature;BME280_humidity;BME280_pressure;Samples;Min_cycle;Max_cycle;Signal;HPM_P1;HPM_P2
2022/07/08 00:02:08;;;;;;;0.10;0.10;;;14.30;99.90;;;;;;5023477;28;20367;-88
2022/07/08 00:04:34;;;;;;;0.00;0.00;;;14.30;99.90;;;;;;5024125;28;20032;-88
2022/07/08 00:07:00;;;;;;;0.00;0.00;;;14.30;99.90;;;;;;5040441;28;20506;-88
2022/07/08 00:09:27;;;;;;;0.00;0.00;;;14.30;99.90;;;;;;5056958;28;20043;-88
2022/07/08 00:11:53;;;;;;;0.10;0.10;;;14.20;99.90;;;;;;5040809;28;20036;-87
2022/07/08 00:14:20;;;;;;;0.10;0.10;;;14.20;99.90;;;;;;5051909;28;20089;-88
2022/07/08 00:16:46;;;;;;;0.00;0.00;;;14.20;99.90;;;;;;5076847;28;20042;-88
2022/07/08 00:19:14;;;;;;;0.10;0.10;;;14.10;99.90;;;;;;5077004;28;20048;-88
2022/07/08 00:21:44;;;;;;;1.25;0.28;;;14.10;99.90;;;;;;5027744;28;20044;-88
2022/07/08 00:24:11;;;;;;;0.10;0.10;;;14.10;99.90;;;;;;5059881;28;20483;-88
2022/07/08 00:26:38;;;;;;;0.00;0.00;;;14.10;99.90;;;;;;5040247;28;20048;-88
2022/07/08 00:29:04;;;;;;;0.08;0.08;;;14.10;99.90;;;;;;5039868;28;20109;-87
2022/07/08 00:31:29;;;;;;;0.00;0.00;;;14.00;99.90;;;;;;5040272;28;20099;-88
2022/07/08 00:33:55;;;;;;;0.10;0.10;;;13.60;99.90;;;;;;5040307;28;20435;-88
2022/07/08 00:36:21;;;;;;;0.08;0.08;;;13.70;99.90;;;;;;5040279;28;20418;-88
2022/07/08 00:38:47;;;;;;;0.00;0.00;;;13.60;99.90;;;;;;5040244;28;20044;-88
2022/07/08 00:41:14;;;;;;;0.10;0.10;;;13.50;99.90;;;;;;5039909;28;20405;-88
2022/07/08 00:43:42;;;;;;;0.00;0.00;;;13.40;99.90;;;;;;5039918;28;20178;-87
2022/07/08 00:46:08;;;;;;;0.05;0.05;;;13.40;99.90;;;;;;5039732;28;20051;-88
2022/07/08 00:48:34;;;;;;;0.15;0.15;;;13.30;99.90;;;;;;5056460;28;20047;-88
2022/07/08 00:51:03;;;;;;;0.10;0.10;;;13.30;99.90;;;;;;5056255;28;20079;-88
2022/07/08 00:53:30;;;;;;;0.10;0.10;;;13.20;99.90;;;;;;5056304;28;20490;-89
2022/07/08 00:55:57;;;;;;;0.32;0.32;;;13.10;99.90;;;;;;5039569;28;20090;-88
2022/07/08 00:58:24;;;;;;;0.10;0.10;;;13.10;99.90;;;;;;5039904;28;20047;-89
2022/07/08 01:00:52;;;;;;;0.08;0.08;;;13.00;99.90;;;;;;5054940;28;20106;-87
2022/07/08 01:03:18;;;;;;;0.00;0.00;;;12.90;99.90;;;;;;5055964;28;20076;-83
2022/07/08 01:05:43;;;;;;;0.00;0.00;;;12.80;99.90;;;;;;5056168;28;20094;-82
2022/07/08 01:08:09;;;;;;;0.00;0.00;;;12.80;99.90;;;;;;5039353;28;20478;-83
2022/07/08 01:10:36;;;;;;;0.00;0.00;;;12.70;99.90;;;;;;5006642;28;20063;-82
2022/07/08 01:13:03;;;;;;;0.10;0.10;;;12.60;99.90;;;;;;5023411;28;20478;-83
2022/07/08 01:15:29;;;;;;;0.10;0.10;;;12.50;99.90;;;;;;5075791;28;20032;-83
2022/07/08 01:17:54;;;;;;;0.10;0.10;;;12.40;99.90;;;;;;5059528;28;20134;-83
2022/07/08 01:20:20;;;;;;;0.10;0.10;;;12.40;99.90;;;;;;5042030;28;20044;-89
2022/07/08 01:22:46;;;;;;;0.20;0.20;;;12.40;99.90;;;;;;5075759;28;20082;-88
2022/07/08 01:25:13;;;;;;;0.00;0.00;;;12.30;99.90;;;;;;5059149;28;20044;-89
2022/07/08 01:27:41;;;;;;;0.15;0.15;;;12.20;99.90;;;;;;5075657;28;20047;-89
2022/07/08 01:30:08;;;;;;;0.00;0.00;;;12.10;99.90;;;;;;5042838;28;20055;-89
2022/07/08 01:32:41;;;;;;;0.00;0.00;;;12.10;99.90;;;;;;5075937;28;20040;-89
2022/07/08 01:35:09;;;;;;;0.00;0.00;;;11.90;99.90;;;;;;5075690;28;20065;-89
2022/07/08 01:37:35;;;;;;;0.10;0.10;;;11.90;99.90;;;;;;5059045;28;20080;-89
2022/07/08 01:40:01;;;;;;;0.10;0.10;;;11.80;99.90;;;;;;5075832;28;20113;-89
2022/07/08 01:42:26;;;;;;;0.00;0.00;;;11.80;99.90;;;;;;5075763;28;20490;-89
2022/07/08 01:44:53;;;;;;;0.10;0.10;;;11.60;99.90;;;;;;5075399;28;20047;-88
2022/07/08 01:47:19;;;;;;;0.00;0.00;;;11.60;99.90;;;;;;5075591;28;20043;-89
2022/07/08 01:49:45;;;;;;;0.10;0.10;;;11.60;99.90;;;;;;5075584;28;20040;-89
2022/07/08 01:52:12;;;;;;;0.10;0.10;;;11.50;99.90;;;;;;5075729;28;20431;-89
2022/07/08 01:54:38;;;;;;;0.00;0.00;;;11.40;99.90;;;;;;5075509;28;20477;-88
2022/07/08 01:57:16;;;;;;;0.10;0.10;;;11.40;99.90;;;;;;5058099;28;20036;-88
2022/07/08 01:59:43;;;;;;;0.10;0.10;;;11.30;99.90;;;;;;5040433;28;20565;-87
2022/07/08 02:02:10;;;;;;;0.20;0.20;;;11.30;99.90;;;;;;5039491;28;20505;-88
2022/07/08 02:04:36;;;;;;;0.15;0.15;;;11.20;99.90;;;;;;5039368;28;20036;-88
2022/07/08 02:07:02;;;;;;;0.00;0.00;;;11.20;99.90;;;;;;5038464;28;20036;-88
2022/07/08 02:09:28;;;;;;;0.75;0.22;;;11.10;99.90;;;;;;5038522;28;20101;-88
2022/07/08 02:14:38;;;;;;;0.10;0.10;;;11.10;99.90;;;;;;5069197;28;20040;-88
2022/07/08 02:17:04;;;;;;;0.00;0.00;;;11.10;99.90;;;;;;5041972;28;20438;-88
2022/07/08 02:19:30;;;;;;;0.10;0.10;;;11.10;99.90;;;;;;5075362;28;20405;-88
2022/07/08 02:21:56;;;;;;;0.00;0.00;;;11.20;99.90;;;;;;5041832;28;20040;-88
2022/07/08 02:24:22;;;;;;;0.70;0.30;;;11.20;99.90;;;;;;5074893;28;20105;-89
2022/07/08 02:26:47;;;;;;;1.25;0.32;;;11.30;99.90;;;;;;5075084;28;20154;-88
2022/07/08 02:29:13;;;;;;;0.00;0.00;;;11.30;99.90;;;;;;5074713;28;20064;-88
2022/07/08 02:31:39;;;;;;;0.10;0.10;;;11.30;99.90;;;;;;5044543;28;20075;-87
2022/07/08 02:34:05;;;;;;;0.20;0.20;;;11.20;99.90;;;;;;5079042;28;20043;-87
2022/07/08 02:36:31;;;;;;;0.00;0.00;;;11.20;99.90;;;;;;5079002;28;20036;-87
2022/07/08 02:38:57;;;;;;;0.10;0.10;;;11.20;99.90;;;;;;5079101;28;20043;-88
2022/07/08 02:41:22;;;;;;;0.22;0.22;;;11.10;99.90;;;;;;5079035;28;20032;-87
2022/07/08 02:43:48;;;;;;;0.03;0.03;;;11.10;99.90;;;;;;5078921;28;20028;-82
2022/07/08 02:46:14;;;;;;;0.10;0.10;;;11.10;99.90;;;;;;5078644;28;20551;-83
2022/07/08 02:48:39;;;;;;;0.10;0.10;;;11.10;99.90;;;;;;5078622;28;20074;-82
2022/07/08 02:51:05;;;;;;;0.20;0.20;;;11.20;99.90;;;;;;5078877;28;20035;-82
2022/07/08 02:53:31;;;;;;;0.20;0.20;;;11.00;99.90;;;;;;5068030;28;20079;-82
2022/07/08 02:55:57;;;;;;;0.00;0.00;;;10.90;99.90;;;;;;5058367;28;20063;-82
2022/07/08 02:58:23;;;;;;;0.00;0.00;;;11.00;99.90;;;;;;5058453;28;20048;-82
2022/07/08 03:00:49;;;;;;;0.25;0.25;;;11.00;99.90;;;;;;5057395;28;20390;-87
2022/07/08 03:03:14;;;;;;;0.10;0.10;;;10.90;99.90;;;;;;5058227;28;20041;-87
2022/07/08 03:05:40;;;;;;;0.00;0.00;;;10.90;99.90;;;;;;5058077;28;20044;-87
2022/07/08 03:08:06;;;;;;;0.00;0.00;;;10.90;99.90;;;;;;5041729;28;20044;-87
2022/07/08 03:10:32;;;;;;;0.00;0.00;;;10.90;99.90;;;;;;5058280;28;20425;-87
2022/07/08 03:12:58;;;;;;;0.00;0.00;;;10.90;99.90;;;;;;5058105;28;20569;-87
2022/07/08 03:15:25;;;;;;;0.00;0.00;;;10.90;99.90;;;;;;5078155;28;20127;-87
2022/07/08 03:17:51;;;;;;;1.65;0.32;;;10.90;99.90;;;;;;5078375;28;20043;-82
2022/07/08 03:20:18;;;;;;;0.00;0.00;;;10.90;99.90;;;;;;5078031;28;20036;-82
2022/07/08 03:22:44;;;;;;;0.00;0.00;;;10.90;99.90;;;;;;5078012;28;20040;-82
2022/07/08 03:25:10;;;;;;;0.10;0.10;;;10.90;99.90;;;;;;5078042;28;20036;-82
2022/07/08 03:27:35;;;;;;;0.00;0.00;;;10.90;99.90;;;;;;5094684;28;20137;-82
2022/07/08 03:30:01;;;;;;;0.00;0.00;;;10.90;99.90;;;;;;5077677;28;20052;-82
2022/07/08 03:32:28;;;;;;;0.43;0.43;;;11.00;99.90;;;;;;5077751;28;20382;-82
2022/07/08 03:34:53;;;;;;;0.00;0.00;;;11.00;99.90;;;;;;5078287;28;20090;-87
2022/07/08 03:37:19;;;;;;;0.10;0.10;;;11.00;99.90;;;;;;5077717;28;20402;-87
2022/07/08 03:39:46;;;;;;;0.00;0.00;;;11.00;99.90;;;;;;5077774;28;20124;-87
2022/07/08 03:42:12;;;;;;;0.13;0.10;;;11.00;99.90;;;;;;5073851;28;20040;-87
2022/07/08 03:44:38;;;;;;;0.10;0.10;;;11.00;99.90;;;;;;5040963;28;20059;-87
2022/07/08 03:47:04;;;;;;;0.10;0.10;;;11.00;99.90;;;;;;5057491;28;20036;-87
2022/07/08 03:49:29;;;;;;;1.30;0.43;;;11.00;99.90;;;;;;5040897;28;20115;-82
2022/07/08 03:51:55;;;;;;;0.00;0.00;;;11.20;99.90;;;;;;5057587;28;20037;-82
2022/07/08 03:54:21;;;;;;;0.00;0.00;;;11.10;99.90;;;;;;5008080;28;20504;-82
2022/07/08 03:56:46;;;;;;;0.00;0.00;;;11.20;99.90;;;;;;5057340;28;20055;-82
2022/07/08 03:59:12;;;;;;;0.05;0.05;;;11.30;99.90;;;;;;5057628;28;20079;-82
2022/07/08 04:01:38;;;;;;;0.10;0.10;;;11.50;99.90;;;;;;5055924;28;20478;-82
2022/07/08 04:04:03;;;;;;;0.10;0.10;;;11.60;99.90;;;;;;5023824;28;20094;-82
2022/07/08 04:06:29;;;;;;;0.57;0.43;;;11.80;99.90;;;;;;5040682;28;20516;-82
2022/07/08 04:08:55;;;;;;;0.03;0.03;;;12.00;99.90;;;;;;5040253;28;20110;-81
2022/07/08 04:11:20;;;;;;;0.00;0.00;;;12.20;99.90;;;;;;5040721;28;20037;-82
2022/07/08 04:13:46;;;;;;;0.10;0.10;;;12.40;99.90;;;;;;5063678;28;20064;-82
2022/07/08 04:16:13;;;;;;;0.32;0.30;;;12.50;99.90;;;;;;5077243;28;20058;-82
2022/07/08 04:18:40;;;;;;;0.10;0.10;;;12.60;99.90;;;;;;5077227;28;20486;-82
2022/07/08 04:21:06;;;;;;;0.10;0.10;;;12.80;99.90;;;;;;5077166;28;20391;-82
2022/07/08 04:23:32;;;;;;;0.10;0.10;;;12.90;99.90;;;;;;5076942;28;20126;-87
2022/07/08 04:25:58;;;;;;;0.10;0.10;;;13.00;99.90;;;;;;5076830;28;20044;-87
2022/07/08 04:28:24;;;;;;;0.05;0.05;;;13.10;99.90;;;;;;5077006;28;20040;-87
2022/07/08 04:30:50;;;;;;;0.00;0.00;;;13.20;99.90;;;;;;5076556;28;20419;-87
2022/07/08 04:33:16;;;;;;;0.20;0.20;;;13.30;99.90;;;;;;5060404;28;20479;-87
2022/07/08 04:35:42;;;;;;;0.68;0.68;;;13.40;99.90;;;;;;5023695;28;20044;-87
2022/07/08 04:38:07;;;;;;;0.00;0.00;;;13.40;99.90;;;;;;5023640;28;20036;-87
2022/07/08 04:40:33;;;;;;;0.85;0.85;;;13.50;99.90;;;;;;5056917;28;20135;-83
2022/07/08 04:42:59;;;;;;;0.10;0.10;;;13.60;99.90;;;;;;5056724;28;20390;-82
2022/07/08 04:45:25;;;;;;;0.10;0.10;;;13.70;99.90;;;;;;5056442;28;20531;-82
2022/07/08 04:47:51;;;;;;;0.28;0.25;;;13.80;99.90;;;;;;5023439;28;20045;-82
2022/07/08 04:50:17;;;;;;;0.10;0.10;;;13.90;99.90;;;;;;5039603;28;20470;-82
2022/07/08 04:52:43;;;;;;;0.10;0.10;;;14.00;99.90;;;;;;5056455;28;20094;-82
2022/07/08 04:55:27;;;;;;;0.10;0.10;;;14.10;99.90;;;;;;5038579;28;20455;-82
2022/07/08 04:57:58;;;;;;;0.10;0.10;;;14.20;99.90;;;;;;5056235;28;20040;-83
2022/07/08 05:00:24;;;;;;;0.00;0.00;;;14.30;99.90;;;;;;5038896;28;20036;-82
2022/07/08 05:02:49;;;;;;;0.10;0.10;;;14.50;99.90;;;;;;5039492;28;20123;-82
2022/07/08 05:05:15;;;;;;;0.00;0.00;;;14.80;99.90;;;;;;5055850;28;20406;-83
2022/07/08 05:07:41;;;;;;;0.00;0.00;;;14.80;99.90;;;;;;5022989;28;20044;-83
2022/07/08 05:10:07;;;;;;;0.00;0.00;;;15.00;99.90;;;;;;5023246;28;20124;-82
2022/07/08 05:12:33;;;;;;;0.10;0.10;;;15.20;99.90;;;;;;5039161;28;20032;-83
2022/07/08 05:14:58;;;;;;;0.10;0.10;;;15.40;99.90;;;;;;5039357;28;20120;-83
2022/07/08 05:17:24;;;;;;;0.05;0.05;;;15.50;99.90;;;;;;5075999;28;20040;-83
2022/07/08 05:19:49;;;;;;;2.10;1.05;;;15.70;99.90;;;;;;5075812;28;20097;-82
2022/07/08 05:22:15;;;;;;;0.00;0.00;;;15.90;99.90;;;;;;5054369;28;20074;-83
2022/07/08 05:24:41;;;;;;;0.47;0.40;;;16.10;99.90;;;;;;5022704;28;20079;-82
2022/07/08 05:27:07;;;;;;;0.10;0.10;;;16.30;99.90;;;;;;5039221;28;20119;-82
2022/07/08 05:29:32;;;;;;;0.10;0.10;;;17.70;99.90;;;;;;5035381;28;20405;-87
2022/07/08 05:31:58;;;;;;;0.00;0.00;;;16.50;99.90;;;;;;5035782;28;20037;-88
2022/07/08 05:34:24;;;;;;;0.30;0.30;;;16.70;99.90;;;;;;5035664;28;20090;-87
2022/07/08 05:36:50;;;;;;;0.60;0.60;;;16.70;99.90;;;;;;5052252;28;20107;-87
2022/07/08 05:39:16;;;;;;;0.03;0.03;;;16.70;99.90;;;;;;5052272;28;20107;-88
2022/07/08 05:41:42;;;;;;;0.08;0.08;;;16.70;99.90;;;;;;5052656;28;20036;-88
2022/07/08 05:44:08;;;;;;;1.35;0.32;;;16.70;99.90;;;;;;5060048;22;20056;-83
2022/07/08 05:46:34;;;;;;;0.08;0.08;;;16.70;99.90;;;;;;5018999;28;20045;-87
2022/07/08 05:49:00;;;;;;;0.10;0.10;;;16.80;99.90;;;;;;5035845;28;20040;-88
2022/07/08 05:51:25;;;;;;;0.03;0.03;;;16.90;99.90;;;;;;5035695;28;20043;-88
2022/07/08 05:53:55;;;;;;;0.08;0.08;;;17.00;99.90;;;;;;5035936;28;20040;-87
2022/07/08 05:56:21;;;;;;;0.10;0.10;;;17.10;99.90;;;;;;5036196;28;20487;-88
2022/07/08 05:58:47;;;;;;;4.68;1.00;;;17.20;99.90;;;;;;5052556;28;20395;-87
2022/07/08 06:01:12;;;;;;;0.10;0.10;;;17.30;99.90;;;;;;5050571;28;20044;-87
2022/07/08 06:03:38;;;;;;;0.00;0.00;;;17.30;99.90;;;;;;5051932;28;20094;-88
2022/07/08 06:06:04;;;;;;;0.00;0.00;;;17.60;99.90;;;;;;5018499;28;20040;-88
2022/07/08 06:08:30;;;;;;;0.00;0.00;;;17.60;99.90;;;;;;5052028;28;20048;-87
2022/07/08 06:10:56;;;;;;;0.20;0.20;;;17.80;99.90;;;;;;5051761;28;20471;-88
2022/07/08 06:13:22;;;;;;;0.08;0.08;;;17.90;99.90;;;;;;5035089;28;20068;-87
2022/07/08 06:15:48;;;;;;;0.17;0.17;;;17.90;99.90;;;;;;5034932;28;20090;-87
2022/07/08 06:18:14;;;;;;;0.00;0.00;;;18.00;99.90;;;;;;5035205;28;20044;-88
2022/07/08 06:20:39;;;;;;;0.00;0.00;;;18.20;99.90;;;;;;5035445;28;20371;-83
2022/07/08 06:23:05;;;;;;;0.00;0.00;;;18.30;99.90;;;;;;5035342;28;20041;-83
2022/07/08 06:25:31;;;;;;;0.10;0.10;;;18.50;99.90;;;;;;5035076;28;20505;-83
2022/07/08 06:27:57;;;;;;;0.00;0.00;;;18.90;99.90;;;;;;5035085;28;20099;-83
2022/07/08 06:30:22;;;;;;;0.05;0.05;;;20.90;99.90;;;;;;5034923;28;20041;-83
2022/07/08 06:32:48;;;;;;;0.25;0.25;;;21.30;99.90;;;;;;5033956;28;20045;-83
2022/07/08 06:35:14;;;;;;;0.30;0.20;;;21.80;99.90;;;;;;5015008;28;20038;-83
2022/07/08 06:37:39;;;;;;;5.28;0.40;;;22.90;99.90;;;;;;5032281;28;20095;-82
2022/07/08 06:40:06;;;;;;;0.10;0.10;;;24.20;99.90;;;;;;5038737;28;20495;-83
2022/07/08 06:42:32;;;;;;;4.53;0.28;;;25.80;99.90;;;;;;5030333;28;20407;-83
2022/07/08 06:44:57;;;;;;;0.10;0.10;;;25.90;99.90;;;;;;5023594;28;20057;-82
2022/07/08 06:47:23;;;;;;;0.10;0.10;;;26.30;99.90;;;;;;5034878;28;20045;-83
2022/07/08 06:49:49;;;;;;;0.20;0.20;;;26.40;99.70;;;;;;5027384;28;20087;-83
2022/07/08 06:52:15;;;;;;;0.38;0.30;;;26.90;99.00;;;;;;5030927;28;20507;-82
2022/07/08 06:54:41;;;;;;;0.57;0.57;;;27.60;98.20;;;;;;5033013;28;20402;-83
2022/07/08 06:57:07;;;;;;;0.20;0.20;;;27.30;96.80;;;;;;5024389;28;20025;-83
2022/07/08 06:59:38;;;;;;;0.10;0.10;;;26.80;96.00;;;;;;5051223;28;20059;-83
2022/07/08 07:02:04;;;;;;;0.13;0.10;;;26.40;96.20;;;;;;5032823;28;20033;-82
2022/07/08 07:04:30;;;;;;;1.08;0.65;;;25.80;97.40;;;;;;5033320;28;20506;-83
2022/07/08 07:06:56;;;;;;;0.22;0.22;;;25.30;98.00;;;;;;5034388;28;20159;-83
2022/07/08 07:09:22;;;;;;;0.20;0.20;;;24.80;98.30;;;;;;5034517;28;20045;-85
2022/07/08 07:11:48;;;;;;;0.10;0.10;;;25.00;99.20;;;;;;5034635;28;20108;-90
2022/07/08 07:14:14;;;;;;;0.75;0.30;;;25.60;97.70;;;;;;5050620;28;20041;-90
2022/07/08 07:16:40;;;;;;;0.10;0.10;;;25.70;97.50;;;;;;5051163;28;20132;-89
2022/07/08 07:19:05;;;;;;;0.05;0.05;;;25.50;97.30;;;;;;5054594;28;20152;-90
2022/07/08 07:21:31;;;;;;;0.22;0.22;;;25.20;98.20;;;;;;5037833;28;20049;-90
2022/07/08 07:23:57;;;;;;;0.10;0.10;;;24.80;99.10;;;;;;5054518;28;20044;-89
2022/07/08 07:26:22;;;;;;;3.10;1.00;;;24.30;98.50;;;;;;5054469;28;20505;-84
2022/07/08 07:28:48;;;;;;;0.30;0.30;;;23.60;99.50;;;;;;5054445;28;20423;-84
2022/07/08 07:31:14;;;;;;;0.85;0.32;;;23.00;99.90;;;;;;5037607;28;20072;-83
2022/07/08 07:33:39;;;;;;;0.57;0.47;;;22.70;99.90;;;;;;5054232;28;20120;-83
2022/07/08 07:36:06;;;;;;;0.17;0.17;;;22.40;99.90;;;;;;5037362;28;20036;-83
2022/07/08 07:38:34;;;;;;;0.10;0.10;;;22.20;99.90;;;;;;5021505;28;20111;-84
2022/07/08 07:41:00;;;;;;;0.05;0.05;;;22.10;99.90;;;;;;5054591;28;20169;-83
2022/07/08 07:43:25;;;;;;;0.00;0.00;;;22.20;99.90;;;;;;5021315;28;20465;-83
2022/07/08 07:45:51;;;;;;;1.23;0.17;;;22.10;99.90;;;;;;5037115;28;20149;-83
2022/07/08 07:48:17;;;;;;;0.55;0.55;;;22.10;99.90;;;;;;5054209;28;20045;-83
2022/07/08 07:50:42;;;;;;;0.10;0.10;;;22.10;99.90;;;;;;5037870;28;20041;-83
2022/07/08 07:53:08;;;;;;;0.20;0.20;;;22.20;99.90;;;;;;5020948;28;20407;-83
2022/07/08 07:55:34;;;;;;;0.00;0.00;;;22.10;99.90;;;;;;5032211;28;20052;-83
2022/07/08 07:58:00;;;;;;;1.60;0.57;;;22.20;99.90;;;;;;5033003;28;20045;-83
2022/07/08 08:00:26;;;;;;;0.22;0.22;;;22.10;99.90;;;;;;5021394;28;20041;-83
2022/07/08 08:02:52;;;;;;;0.60;0.25;;;22.00;99.90;;;;;;5053284;28;20067;-83
2022/07/08 08:05:18;;;;;;;0.00;0.00;;;22.10;99.90;;;;;;5036368;28;20376;-83
2022/07/08 08:07:44;;;;;;;0.17;0.17;;;22.10;99.90;;;;;;5036587;28;20091;-83
2022/07/08 08:10:14;;;;;;;0.10;0.10;;;22.20;99.90;;;;;;5037015;28;20438;-83
2022/07/08 08:12:41;;;;;;;0.10;0.10;;;22.30;99.90;;;;;;5037202;28;20106;-83
2022/07/08 08:15:08;;;;;;;0.00;0.00;;;22.20;99.90;;;;;;5020087;28;20041;-82
2022/07/08 08:17:41;;;;;;;0.00;0.00;;;22.30;99.90;;;;;;5037277;28;20494;-83
2022/07/08 08:20:09;;;;;;;0.10;0.10;;;22.30;99.90;;;;;;5053688;28;20094;-83
2022/07/08 08:22:35;;;;;;;0.20;0.20;;;22.10;99.90;;;;;;5037516;28;20422;-83
2022/07/08 08:25:02;;;;;;;0.00;0.00;;;22.00;99.90;;;;;;5036367;28;20468;-83
2022/07/08 08:27:28;;;;;;;0.50;0.50;;;21.90;99.90;;;;;;5052700;28;20041;-82
2022/07/08 08:29:54;;;;;;;0.45;0.20;;;21.90;99.90;;;;;;5053253;28;20128;-83
2022/07/08 08:32:20;;;;;;;0.45;0.35;;;21.90;99.90;;;;;;5053577;28;20373;-83
2022/07/08 08:34:46;;;;;;;0.15;0.15;;;21.90;99.90;;;;;;5053189;28;20051;-83
2022/07/08 08:37:13;;;;;;;0.15;0.15;;;22.00;99.90;;;;;;5036583;28;20533;-84
2022/07/08 08:39:39;;;;;;;0.10;0.10;;;22.10;99.90;;;;;;5036501;28;20045;-83
2022/07/08 08:42:06;;;;;;;0.40;0.40;;;22.30;99.90;;;;;;5036194;28;20037;-83
2022/07/08 08:44:32;;;;;;;0.20;0.20;;;22.50;99.90;;;;;;5036527;28;20142;-83
2022/07/08 08:46:58;;;;;;;0.10;0.10;;;22.70;99.90;;;;;;5036750;28;20045;-84
2022/07/08 08:49:25;;;;;;;0.20;0.20;;;23.00;99.90;;;;;;5052610;28;20391;-83
2022/07/08 08:51:51;;;;;;;0.00;0.00;;;23.20;99.90;;;;;;5037631;28;20040;-83
2022/07/08 08:54:22;;;;;;;2.35;0.30;;;23.30;99.90;;;;;;5019189;28;20394;-83
2022/07/08 08:56:48;;;;;;;0.00;0.00;;;23.40;99.90;;;;;;5038683;28;20107;-83
2022/07/08 08:59:18;;;;;;;0.05;0.05;;;23.70;99.90;;;;;;5016558;28;20133;-83
2022/07/08 09:01:44;;;;;;;0.05;0.05;;;23.90;99.90;;;;;;5037173;28;20044;-83
2022/07/08 09:04:13;;;;;;;0.35;0.35;;;23.90;99.90;;;;;;5035432;28;20080;-83
2022/07/08 09:06:40;;;;;;;0.00;0.00;;;24.00;99.90;;;;;;5052720;28;20128;-89
2022/07/08 09:09:06;;;;;;;0.10;0.10;;;23.90;99.90;;;;;;5052725;28;20041;-89
2022/07/08 09:11:35;;;;;;;0.28;0.28;;;24.00;99.90;;;;;;5036052;28;20044;-89
2022/07/08 09:14:15;;;;;;;0.10;0.10;;;24.00;99.90;;;;;;5035396;28;20071;-89
2022/07/08 09:17:01;;;;;;;0.45;0.45;;;24.20;99.90;;;;;;5052188;28;20041;-89
2022/07/08 09:19:27;;;;;;;0.10;0.10;;;24.30;99.90;;;;;;5022159;28;20052;-90
2022/07/08 09:21:53;;;;;;;0.20;0.20;;;24.70;99.90;;;;;;5036001;28;20487;-89
2022/07/08 09:24:20;;;;;;;0.10;0.10;;;25.50;99.90;;;;;;5019402;28;20107;-84
2022/07/08 09:26:45;;;;;;;0.20;0.20;;;25.90;98.50;;;;;;5051885;28;20041;-83
2022/07/08 09:29:11;;;;;;;0.25;0.25;;;25.80;97.90;;;;;;5035879;28;20055;-84
2022/07/08 09:31:38;;;;;;;0.00;0.00;;;25.80;97.70;;;;;;5035840;28;20102;-83
2022/07/08 09:34:11;;;;;;;0.10;0.10;;;25.80;98.20;;;;;;5035350;28;20044;-83
2022/07/08 09:36:48;;;;;;;1.55;0.38;;;25.50;98.30;;;;;;5051928;28;20056;-84
2022/07/08 09:39:26;;;;;;;0.05;0.05;;;25.50;98.40;;;;;;5035505;28;20052;-84
2022/07/08 09:41:52;;;;;;;0.00;0.00;;;26.60;98.50;;;;;;5035247;28;20047;-88
2022/07/08 09:44:22;;;;;;;0.20;0.20;;;27.60;96.10;;;;;;5051975;28;20099;-88
2022/07/08 09:46:48;;;;;;;0.10;0.10;;;27.90;96.30;;;;;;5034974;28;20049;-88
2022/07/08 09:49:31;;;;;;;0.32;0.32;;;27.90;95.80;;;;;;5051472;28;20091;-88
2022/07/08 09:51:58;;;;;;;0.03;0.03;;;27.70;95.20;;;;;;5049293;28;20029;-88
2022/07/08 09:54:27;;;;;;;0.00;0.00;;;27.50;94.80;;;;;;5052005;28;20044;-88
2022/07/08 09:57:14;;;;;;;0.30;0.30;;;26.80;94.70;;;;;;5044157;28;20036;-84
2022/07/08 09:59:40;;;;;;;0.10;0.10;;;26.30;94.80;;;;;;5035644;28;20120;-84
2022/07/08 10:02:06;;;;;;;0.17;0.17;;;25.90;95.40;;;;;;5049973;28;20144;-83
2022/07/08 10:04:31;;;;;;;1.85;0.95;;;25.80;96.00;;;;;;5051293;28;20463;-84
2022/07/08 10:06:58;;;;;;;0.10;0.10;;;25.70;96.30;;;;;;5034797;28;20041;-84
2022/07/08 10:09:26;;;;;;;0.20;0.20;;;25.50;96.30;;;;;;5034831;28;20398;-84
2022/07/08 10:11:53;;;;;;;0.03;0.03;;;25.40;96.20;;;;;;5051865;28;20060;-84
2022/07/08 10:14:20;;;;;;;0.10;0.10;;;25.30;97.10;;;;;;5051057;28;20037;-89
2022/07/08 10:16:47;;;;;;;0.10;0.10;;;25.40;97.10;;;;;;5035106;28;20037;-89
2022/07/08 10:19:31;;;;;;;0.17;0.17;;;25.80;97.10;;;;;;5035108;28;20067;-88
2022/07/08 10:21:58;;;;;;;0.35;0.32;;;26.60;95.80;;;;;;5034901;28;20044;-89
2022/07/08 10:24:27;;;;;;;0.20;0.20;;;26.90;95.40;;;;;;5034743;28;20079;-88
2022/07/08 10:26:58;;;;;;;0.03;0.03;;;26.90;95.20;;;;;;5035122;28;20047;-89
2022/07/08 10:29:33;;;;;;;0.08;0.08;;;27.10;95.90;;;;;;5051069;28;20056;-89
2022/07/08 10:32:00;;;;;;;0.30;0.30;;;27.40;95.50;;;;;;5035337;28;20032;-90
2022/07/08 10:34:31;;;;;;;0.17;0.17;;;27.30;94.80;;;;;;5051152;28;20041;-89
2022/07/08 10:36:57;;;;;;;0.43;0.35;;;26.80;95.00;;;;;;5051840;28;20133;-89
2022/07/08 10:39:28;;;;;;;0.10;0.10;;;26.40;95.00;;;;;;5034764;28;20045;-90
2022/07/08 10:42:08;;;;;;;0.30;0.30;;;26.00;95.70;;;;;;5035176;28;20186;-89
2022/07/08 10:44:44;;;;;;;0.03;0.03;;;25.80;96.50;;;;;;5050988;28;20065;-89
2022/07/08 10:47:11;;;;;;;0.10;0.10;;;25.80;96.30;;;;;;5032228;28;20503;-89
2022/07/08 10:49:40;;;;;;;0.40;0.40;;;25.60;96.10;;;;;;5027125;28;20046;-89
2022/07/08 10:52:06;;;;;;;0.93;0.85;;;25.30;96.90;;;;;;5037306;28;20116;-89
2022/07/08 10:54:42;;;;;;;0.20;0.20;;;25.00;97.10;;;;;;5055390;28;20099;-89
2022/07/08 10:57:24;;;;;;;0.20;0.20;;;24.80;97.60;;;;;;5037392;28;20049;-88
2022/07/08 11:00:09;;;;;;;0.10;0.10;;;24.50;97.80;;;;;;5048989;28;20434;-89
2022/07/08 11:02:41;;;;;;;0.10;0.10;;;24.40;98.20;;;;;;5054123;28;20049;-89
2022/07/08 11:05:07;;;;;;;0.10;0.10;;;24.30;98.80;;;;;;5054960;28;20037;-84
2022/07/08 11:07:34;;;;;;;0.05;0.05;;;24.10;98.80;;;;;;5054467;28;20099;-84
2022/07/08 11:10:03;;;;;;;0.30;0.30;;;24.00;99.30;;;;;;5037476;28;20037;-84
2022/07/08 11:12:31;;;;;;;0.30;0.30;;;24.20;99.80;;;;;;5054346;28;20422;-84
2022/07/08 11:15:00;;;;;;;0.75;0.52;;;24.60;99.30;;;;;;5038275;28;20045;-84
2022/07/08 11:17:28;;;;;;;1.85;0.55;;;25.10;99.10;;;;;;5033800;28;20531;-84
2022/07/08 11:19:56;;;;;;;0.10;0.10;;;25.60;98.50;;;;;;5038186;28;20495;-87
2022/07/08 11:22:23;;;;;;;0.10;0.10;;;26.00;98.30;;;;;;5055006;28;20045;-87
2022/07/08 11:24:49;;;;;;;1.70;0.77;;;26.00;98.00;;;;;;5043891;28;20441;-87
2022/07/08 11:27:16;;;;;;;1.38;1.27;;;25.60;98.20;;;;;;5036711;28;20037;-88
2022/07/08 11:29:50;;;;;;;0.13;0.13;;;25.10;98.40;;;;;;5029946;28;20044;-89
2022/07/08 11:32:18;;;;;;;0.32;0.32;;;24.70;98.80;;;;;;5050496;28;20108;-88
2022/07/08 11:34:46;;;;;;;0.17;0.17;;;24.50;99.40;;;;;;5045551;28;20033;-89
2022/07/08 11:37:12;;;;;;;0.10;0.10;;;24.40;99.80;;;;;;5046594;28;20120;-84
2022/07/08 11:39:38;;;;;;;0.30;0.30;;;24.80;99.60;;;;;;5043734;28;20040;-84
2022/07/08 11:42:04;;;;;;;0.20;0.20;;;25.50;99.10;;;;;;5042052;28;20128;-84
2022/07/08 11:44:30;;;;;;;0.45;0.30;;;25.70;98.70;;;;;;5026869;28;20132;-84
2022/07/08 11:46:57;;;;;;;0.52;0.47;;;25.60;98.70;;;;;;5033662;28;20059;-84
2022/07/08 11:49:23;;;;;;;1.33;0.80;;;25.70;98.40;;;;;;5028678;28;20192;-84
2022/07/08 11:51:54;;;;;;;0.10;0.10;;;25.60;98.70;;;;;;5042595;28;20041;-84
2022/07/08 11:54:22;;;;;;;0.20;0.20;;;25.40;99.00;;;;;;5041148;28;20103;-88
2022/07/08 11:56:51;;;;;;;0.70;0.68;;;25.60;99.20;;;;;;5031067;28;20445;-88
2022/07/08 11:59:21;;;;;;;0.20;0.20;;;25.60;98.60;;;;;;5037781;28;20041;-88
2022/07/08 12:01:49;;;;;;;0.00;0.00;;;25.60;99.20;;;;;;5050351;28;20059;-88
2022/07/08 12:04:15;;;;;;;1.42;0.95;;;26.30;99.00;;;;;;5051043;28;20045;-87
2022/07/08 12:06:55;;;;;;;0.80;0.57;;;26.90;98.40;;;;;;5025561;28;20045;-88
2022/07/08 12:09:23;;;;;;;0.63;0.43;;;27.20;97.90;;;;;;5044737;28;20222;-87
2022/07/08 12:11:50;;;;;;;0.17;0.17;;;27.20;97.80;;;;;;5042591;28;20387;-87
2022/07/08 12:14:17;;;;;;;1.50;1.40;;;27.30;97.40;;;;;;5030703;28;20033;-87
2022/07/08 12:16:48;;;;;;;0.20;0.20;;;27.40;97.60;;;;;;5053458;28;20072;-87
2022/07/08 12:19:36;;;;;;;0.35;0.35;;;27.10;97.40;;;;;;5031560;28;20040;-87
2022/07/08 12:22:04;;;;;;;0.47;0.35;;;27.20;97.80;;;;;;5053947;28;20106;-88
2022/07/08 12:24:38;;;;;;;0.43;0.30;;;27.90;98.20;;;;;;5037366;28;20475;-88
2022/07/08 12:27:16;;;;;;;0.20;0.20;;;28.70;96.40;;;;;;5037114;28;20037;-88
2022/07/08 12:29:42;;;;;;;0.10;0.10;;;29.30;96.30;;;;;;5053911;28;20048;-87
2022/07/08 12:32:09;;;;;;;0.88;0.65;;;30.00;94.80;;;;;;5053161;28;20048;-88
2022/07/08 12:34:36;;;;;;;0.20;0.20;;;30.40;94.90;;;;;;5053614;28;20491;-87
2022/07/08 12:37:19;;;;;;;0.30;0.30;;;30.50;94.40;;;;;;5053729;28;20040;-88
2022/07/08 12:39:45;;;;;;;0.00;0.00;;;29.90;94.00;;;;;;5036542;28;20041;-87
2022/07/08 12:42:11;;;;;;;0.08;0.08;;;29.30;94.20;;;;;;5033172;28;20045;-87
2022/07/08 12:44:39;;;;;;;0.10;0.10;;;28.70;94.50;;;;;;5051528;28;20057;-84
2022/07/08 12:47:07;;;;;;;0.10;0.10;;;28.20;95.70;;;;;;5048249;28;20052;-83
2022/07/08 12:49:35;;;;;;;0.40;0.28;;;27.80;96.10;;;;;;5033990;28;20368;-83
2022/07/08 12:52:03;;;;;;;0.20;0.20;;;27.80;96.40;;;;;;5030818;28;20124;-84